Time;durP1;ratioP1;P1;durP2;ratioP2;P2;SDS_P1;SDS_P2;PMS_P1;PMS_P2;Temp;Humidity;BMP_temperature;BMP_pressure;BME280_temperature;BME280_humidity;BME280_pressure;Samples;Min_cycle;Max_cycle;Signal;HPM_P1;HPM_P2
2023/05/13 00:02:07;;;;;;;14.57;9.60;;;;;;;;;;5154565;27;20062;-81
2023/05/13 00:04:33;;;;;;;10.63;8.98;;;;;;;;;;5116704;27;20096;-81
2023/05/13 00:06:59;;;;;;;14.50;9.20;;;;;;;;;;5135107;27;20038;-81
2023/05/13 00:09:25;;;;;;;12.32;9.23;;;;;;;;;;5138295;27;20039;-81
2023/05/13 00:11:51;;;;;;;14.50;9.43;;;;;;;;;;5131429;27;20039;-80
2023/05/13 00:14:17;;;;;;;13.00;10.30;;;;;;;;;;5135236;27;20487;-80
2023/05/13 00:16:43;;;;;;;15.70;9.60;;;;;;;;;;5149079;27;20106;-81
2023/05/13 00:19:09;;;;;;;14.95;9.43;;;;;;;;;;5131817;27;20039;-81
2023/05/13 00:21:35;;;;;;;13.10;8.93;;;;;;;;;;5128224;27;20034;-82
2023/05/13 00:24:02;;;;;;;16.13;10.40;;;;;;;;;;5134507;27;20050;-81
2023/05/13 00:26:28;;;;;;;14.18;10.75;;;;;;;;;;5136972;27;20379;-80
2023/05/13 00:28:54;;;;;;;15.45;10.90;;;;;;;;;;5116190;27;20126;-80
2023/05/13 00:31:20;;;;;;;13.93;10.20;;;;;;;;;;5118684;27;20043;-81
2023/05/13 00:33:46;;;;;;;13.98;9.95;;;;;;;;;;5154747;27;20115;-81
2023/05/13 00:36:12;;;;;;;16.85;11.80;;;;;;;;;;5141525;27;20417;-81
2023/05/13 00:38:39;;;;;;;14.52;11.00;;;;;;;;;;5119649;27;20039;-80
2023/05/13 00:41:05;;;;;;;15.88;10.52;;;;;;;;;;5122483;27;20096;-80
2023/05/13 00:43:31;;;;;;;15.85;10.30;;;;;;;;;;5122142;27;20491;-82
2023/05/13 00:45:58;;;;;;;18.52;11.45;;;;;;;;;;5152268;27;20398;-82
2023/05/13 00:48:24;;;;;;;13.75;10.77;;;;;;;;;;5126477;27;20035;-82
2023/05/13 00:50:50;;;;;;;18.50;10.68;;;;;;;;;;5093172;28;20067;-82
2023/05/13 00:53:17;;;;;;;14.20;10.95;;;;;;;;;;5113005;28;20048;-80
2023/05/13 00:55:44;;;;;;;18.65;12.90;;;;;;;;;;5109210;28;20051;-82
2023/05/13 00:58:10;;;;;;;18.00;11.93;;;;;;;;;;5091035;28;20180;-82
2023/05/13 01:00:44;;;;;;;17.23;11.18;;;;;;;;;;5103009;28;20051;-80
2023/05/13 01:03:17;;;;;;;16.50;11.93;;;;;;;;;;5096953;28;20050;-79
2023/05/13 01:06:01;;;;;;;15.48;11.15;;;;;;;;;;5106620;28;20044;-83
2023/05/13 01:08:47;;;;;;;16.98;12.38;;;;;;;;;;5093810;28;20043;-82
2023/05/13 01:11:15;;;;;;;18.75;12.77;;;;;;;;;;5110378;27;20051;-82
2023/05/13 01:13:44;;;;;;;15.82;11.93;;;;;;;;;;5107146;28;20078;-80
2023/05/13 01:16:17;;;;;;;17.98;11.55;;;;;;;;;;5101609;28;20500;-80
2023/05/13 01:18:54;;;;;;;18.98;13.98;;;;;;;;;;5126431;27;20150;-80
2023/05/13 01:21:25;;;;;;;19.55;14.07;;;;;;;;;;5111574;28;20523;-80
2023/05/13 01:23:51;;;;;;;18.02;13.27;;;;;;;;;;5129154;27;20488;-81
2023/05/13 01:26:17;;;;;;;17.98;12.45;;;;;;;;;;5110890;28;20091;-80
2023/05/13 01:28:43;;;;;;;16.98;12.63;;;;;;;;;;5108680;28;20043;-82
2023/05/13 01:31:10;;;;;;;18.73;13.32;;;;;;;;;;5112489;28;20416;-81
2023/05/13 01:33:37;;;;;;;20.05;14.55;;;;;;;;;;5095318;28;20048;-82
2023/05/13 01:36:03;;;;;;;19.60;13.30;;;;;;;;;;5111788;28;20108;-80
2023/05/13 01:38:30;;;;;;;20.85;14.80;;;;;;;;;;5111991;28;20054;-82
2023/05/13 01:40:57;;;;;;;20.73;15.07;;;;;;;;;;5097590;28;20069;-83
2023/05/13 01:43:23;;;;;;;20.10;14.38;;;;;;;;;;5112861;28;20039;-82
2023/05/13 01:45:49;;;;;;;23.58;14.75;;;;;;;;;;5093410;28;20039;-80
2023/05/13 01:48:17;;;;;;;18.42;14.00;;;;;;;;;;5092734;28;20069;-82
2023/05/13 01:50:43;;;;;;;17.10;14.20;;;;;;;;;;5120019;28;20417;-84
2023/05/13 01:53:09;;;;;;;21.63;14.38;;;;;;;;;;5103080;28;20396;-82
2023/05/13 01:55:35;;;;;;;20.35;14.48;;;;;;;;;;5112181;28;20086;-83
2023/05/13 01:58:01;;;;;;;21.15;15.02;;;;;;;;;;5088933;28;20048;-82
2023/05/13 02:00:27;;;;;;;18.60;12.73;;;;;;;;;;5102783;28;20040;-80
2023/05/13 02:02:53;;;;;;;17.52;13.40;;;;;;;;;;5107612;28;20492;-79
2023/05/13 02:05:20;;;;;;;23.30;14.38;;;;;;;;;;5101499;28;20043;-81
2023/05/13 02:07:46;;;;;;;21.70;15.48;;;;;;;;;;5101779;28;20075;-81
2023/05/13 02:10:12;;;;;;;18.63;14.75;;;;;;;;;;5113036;28;20032;-81
2023/05/13 02:12:38;;;;;;;18.73;13.43;;;;;;;;;;5114440;28;20043;-81
2023/05/13 02:15:04;;;;;;;18.45;14.50;;;;;;;;;;5132142;28;20043;-82
2023/05/13 02:17:30;;;;;;;22.70;15.18;;;;;;;;;;5106035;28;20492;-83
2023/05/13 02:19:59;;;;;;;20.90;15.00;;;;;;;;;;5097821;28;20392;-83
2023/05/13 02:22:41;;;;;;;21.27;15.57;;;;;;;;;;5077574;28;20040;-83
2023/05/13 02:27:57;;;;;;;19.02;13.70;;;;;;;;;;5105263;28;20127;-83
2023/05/13 02:30:25;;;;;;;20.27;14.27;;;;;;;;;;5106756;28;20139;-83
2023/05/13 02:32:52;;;;;;;22.48;15.30;;;;;;;;;;5109406;28;20061;-83
2023/05/13 02:35:18;;;;;;;24.27;15.23;;;;;;;;;;5103194;28;20034;-82
2023/05/13 02:37:44;;;;;;;20.27;14.73;;;;;;;;;;5115841;28;20032;-82
2023/05/13 02:40:10;;;;;;;20.90;14.63;;;;;;;;;;5090397;28;20127;-80
2023/05/13 02:42:36;;;;;;;21.45;14.32;;;;;;;;;;5099152;28;20043;-81
2023/05/13 02:45:02;;;;;;;23.13;16.05;;;;;;;;;;5097566;28;20084;-81
2023/05/13 02:47:29;;;;;;;21.48;15.88;;;;;;;;;;5104805;28;20040;-81
2023/05/13 02:49:56;;;;;;;21.70;15.73;;;;;;;;;;5099204;27;20055;-81
2023/05/13 02:52:22;;;;;;;20.67;15.15;;;;;;;;;;5135607;27;20051;-81
2023/05/13 02:54:48;;;;;;;20.35;14.77;;;;;;;;;;5135406;27;20045;-81
2023/05/13 02:57:15;;;;;;;21.73;16.02;;;;;;;;;;5134817;27;20118;-81
2023/05/13 02:59:41;;;;;;;24.60;15.50;;;;;;;;;;5134996;27;20079;-81
2023/05/13 03:02:07;;;;;;;18.58;14.50;;;;;;;;;;5117043;27;20038;-81
2023/05/13 03:04:33;;;;;;;24.70;15.10;;;;;;;;;;5127285;27;20392;-81
2023/05/13 03:06:59;;;;;;;23.98;16.88;;;;;;;;;;5135966;27;20263;-81
2023/05/13 03:09:25;;;;;;;28.98;18.02;;;;;;;;;;5104846;28;20064;-82
2023/05/13 03:11:52;;;;;;;25.48;15.50;;;;;;;;;;5118378;27;20088;-82
2023/05/13 03:14:18;;;;;;;21.08;17.02;;;;;;;;;;5122434;27;20043;-82
2023/05/13 03:16:44;;;;;;;22.75;16.52;;;;;;;;;;5136097;27;20487;-82
2023/05/13 03:19:10;;;;;;;28.35;18.98;;;;;;;;;;5135467;27;20092;-83
2023/05/13 03:21:36;;;;;;;27.63;19.15;;;;;;;;;;5131559;27;20058;-82
2023/05/13 03:24:03;;;;;;;27.40;18.88;;;;;;;;;;5134918;27;20043;-81
2023/05/13 03:26:29;;;;;;;26.08;17.52;;;;;;;;;;5101189;27;20038;-83
2023/05/13 03:28:55;;;;;;;23.60;16.50;;;;;;;;;;5136154;27;20039;-81
2023/05/13 03:31:21;;;;;;;27.05;19.00;;;;;;;;;;5131589;27;20035;-82
2023/05/13 03:33:47;;;;;;;29.25;20.65;;;;;;;;;;5118442;27;20571;-79
2023/05/13 03:36:13;;;;;;;25.00;17.77;;;;;;;;;;5114317;28;20044;-80
2023/05/13 03:38:40;;;;;;;25.83;17.65;;;;;;;;;;5116026;27;20073;-81
2023/05/13 03:41:06;;;;;;;24.25;17.73;;;;;;;;;;5135599;27;20075;-80
2023/05/13 03:43:32;;;;;;;25.98;19.40;;;;;;;;;;5132302;27;20532;-80
2023/05/13 03:45:58;;;;;;;28.77;18.27;;;;;;;;;;5131354;27;20067;-81
2023/05/13 03:48:24;;;;;;;29.85;19.50;;;;;;;;;;5121848;27;20047;-80
2023/05/13 03:50:51;;;;;;;26.50;18.30;;;;;;;;;;5138067;27;20061;-82
2023/05/13 03:53:18;;;;;;;25.38;17.52;;;;;;;;;;5137384;27;20051;-82
2023/05/13 03:55:45;;;;;;;23.67;16.63;;;;;;;;;;5120393;27;20039;-79
2023/05/13 03:58:13;;;;;;;24.08;16.67;;;;;;;;;;5116873;27;20088;-80
2023/05/13 04:00:39;;;;;;;21.20;16.52;;;;;;;;;;5131406;27;20057;-80
2023/05/13 04:03:06;;;;;;;23.65;18.42;;;;;;;;;;5129538;27;20035;-80
2023/05/13 04:05:32;;;;;;;24.77;17.02;;;;;;;;;;5119730;27;20039;-80
2023/05/13 04:07:58;;;;;;;28.90;18.13;;;;;;;;;;5148071;27;20031;-80
2023/05/13 04:10:24;;;;;;;23.77;16.05;;;;;;;;;;5118555;27;20037;-80
2023/05/13 04:12:50;;;;;;;23.15;18.05;;;;;;;;;;5137087;27;20046;-80
2023/05/13 04:15:16;;;;;;;22.73;15.82;;;;;;;;;;5116093;27;20047;-80
2023/05/13 04:17:42;;;;;;;20.33;15.15;;;;;;;;;;5132631;27;20046;-79
2023/05/13 04:20:09;;;;;;;23.38;15.57;;;;;;;;;;5118581;27;20043;-80
2023/05/13 04:22:35;;;;;;;22.40;13.77;;;;;;;;;;5100178;27;20088;-78
2023/05/13 04:25:01;;;;;;;17.30;13.18;;;;;;;;;;5092703;27;20042;-80
2023/05/13 04:27:27;;;;;;;18.63;12.95;;;;;;;;;;5148266;27;20387;-82
2023/05/13 04:29:53;;;;;;;21.13;13.63;;;;;;;;;;5117658;27;20114;-80
2023/05/13 04:32:22;;;;;;;19.80;13.90;;;;;;;;;;5122760;27;20037;-81
2023/05/13 04:34:49;;;;;;;16.90;12.40;;;;;;;;;;5118712;27;20039;-80
2023/05/13 04:37:15;;;;;;;17.25;11.93;;;;;;;;;;5119606;27;20618;-79
2023/05/13 04:39:41;;;;;;;16.02;12.45;;;;;;;;;;5136716;27;20039;-80
2023/05/13 04:42:07;;;;;;;20.15;12.98;;;;;;;;;;5119532;27;20039;-80
2023/05/13 04:44:33;;;;;;;16.75;11.27;;;;;;;;;;5099241;27;20032;-81
2023/05/13 04:46:59;;;;;;;16.13;12.27;;;;;;;;;;5153098;27;20483;-80
2023/05/13 04:49:26;;;;;;;16.02;10.80;;;;;;;;;;5131977;27;20083;-81
2023/05/13 04:51:52;;;;;;;19.40;10.70;;;;;;;;;;5133377;27;20049;-80
2023/05/13 04:54:19;;;;;;;16.48;9.73;;;;;;;;;;5134573;27;20080;-81
2023/05/13 04:56:45;;;;;;;15.98;10.60;;;;;;;;;;5131825;27;20073;-80
2023/05/13 04:59:11;;;;;;;13.73;9.70;;;;;;;;;;5114775;27;20088;-80
2023/05/13 05:01:37;;;;;;;14.43;9.25;;;;;;;;;;5122831;27;20031;-81
2023/05/13 05:04:04;;;;;;;11.50;8.82;;;;;;;;;;5119687;27;20389;-81
2023/05/13 05:06:31;;;;;;;16.60;10.10;;;;;;;;;;5125309;27;20039;-80
2023/05/13 05:08:57;;;;;;;12.90;9.27;;;;;;;;;;5125952;27;20035;-81
2023/05/13 05:11:23;;;;;;;18.45;10.63;;;;;;;;;;5132731;27;20042;-80
2023/05/13 05:13:49;;;;;;;16.60;9.45;;;;;;;;;;5133178;27;20111;-82
2023/05/13 05:16:15;;;;;;;14.25;8.77;;;;;;;;;;5119899;27;20398;-83
2023/05/13 05:18:42;;;;;;;13.05;9.15;;;;;;;;;;5131609;27;20039;-80
2023/05/13 05:21:08;;;;;;;15.23;9.65;;;;;;;;;;5115150;27;20122;-82
2023/05/13 05:23:35;;;;;;;12.25;9.00;;;;;;;;;;5118111;27;20039;-81
2023/05/13 05:26:02;;;;;;;13.43;8.38;;;;;;;;;;5132622;27;20483;-81
2023/05/13 05:28:28;;;;;;;12.35;8.32;;;;;;;;;;5128793;27;20116;-82
2023/05/13 05:30:55;;;;;;;11.35;8.00;;;;;;;;;;5112623;28;20476;-80
2023/05/13 05:33:21;;;;;;;10.38;7.53;;;;;;;;;;5127353;27;20039;-80
2023/05/13 05:35:47;;;;;;;12.45;8.32;;;;;;;;;;5118326;27;20081;-81
2023/05/13 05:38:13;;;;;;;11.00;8.35;;;;;;;;;;5103565;28;20077;-83
2023/05/13 05:40:40;;;;;;;11.20;8.30;;;;;;;;;;5094613;28;20051;-81
2023/05/13 05:43:07;;;;;;;12.10;7.93;;;;;;;;;;5121895;27;20047;-81
2023/05/13 05:45:36;;;;;;;14.38;8.32;;;;;;;;;;5129117;28;20122;-81
2023/05/13 05:48:03;;;;;;;11.07;7.40;;;;;;;;;;5115237;28;20032;-85
2023/05/13 05:50:29;;;;;;;11.85;7.97;;;;;;;;;;5117747;28;20056;-81
2023/05/13 05:52:56;;;;;;;14.57;8.15;;;;;;;;;;5124614;28;20035;-84
2023/05/13 05:55:22;;;;;;;12.20;7.70;;;;;;;;;;5116312;28;20132;-86
2023/05/13 05:57:49;;;;;;;11.18;7.10;;;;;;;;;;5127060;28;20046;-85
2023/05/13 06:00:15;;;;;;;11.55;7.80;;;;;;;;;;5132262;28;20043;-82
2023/05/13 06:02:41;;;;;;;8.52;6.95;;;;;;;;;;5131491;28;20035;-86
2023/05/13 06:05:08;;;;;;;12.43;7.57;;;;;;;;;;5120360;28;20043;-84
2023/05/13 06:07:34;;;;;;;12.40;8.55;;;;;;;;;;5134435;27;20047;-84
2023/05/13 06:10:00;;;;;;;13.13;7.43;;;;;;;;;;5127458;27;20051;-84
2023/05/13 06:12:26;;;;;;;12.82;6.88;;;;;;;;;;5136519;27;20528;-84
2023/05/13 06:14:53;;;;;;;12.18;7.22;;;;;;;;;;5119071;27;20150;-82
2023/05/13 06:17:19;;;;;;;10.05;7.00;;;;;;;;;;5136081;27;20088;-84
2023/05/13 06:19:45;;;;;;;9.60;7.28;;;;;;;;;;5123163;27;20044;-86
2023/05/13 06:22:11;;;;;;;9.98;6.90;;;;;;;;;;5115685;28;20459;-84
2023/05/13 06:24:38;;;;;;;10.93;6.90;;;;;;;;;;5115954;28;20502;-84
2023/05/13 06:27:04;;;;;;;12.02;6.90;;;;;;;;;;5131192;27;20040;-85
2023/05/13 06:29:31;;;;;;;10.10;6.93;;;;;;;;;;5109291;27;20088;-82
2023/05/13 06:31:57;;;;;;;11.73;6.97;;;;;;;;;;5112804;27;20047;-84
2023/05/13 06:34:23;;;;;;;11.35;6.97;;;;;;;;;;5120219;27;20058;-82
2023/05/13 06:36:49;;;;;;;10.95;7.30;;;;;;;;;;5119995;27;20039;-83
2023/05/13 06:39:15;;;;;;;11.85;7.32;;;;;;;;;;5135493;27;20046;-80
2023/05/13 06:41:41;;;;;;;11.18;6.45;;;;;;;;;;5130675;27;20043;-82
2023/05/13 06:44:07;;;;;;;10.65;6.63;;;;;;;;;;5126558;27;20050;-81
2023/05/13 06:46:33;;;;;;;9.00;6.93;;;;;;;;;;5134959;27;20043;-81
2023/05/13 06:48:59;;;;;;;9.80;6.40;;;;;;;;;;5110186;27;20867;-79
2023/05/13 06:51:26;;;;;;;11.45;6.32;;;;;;;;;;5122642;27;20043;-83
2023/05/13 06:53:52;;;;;;;10.57;6.60;;;;;;;;;;5152976;27;20126;-82
2023/05/13 06:56:21;;;;;;;11.40;6.22;;;;;;;;;;5118891;27;20535;-82
2023/05/13 06:58:48;;;;;;;8.25;6.22;;;;;;;;;;5136236;27;20462;-82
2023/05/13 07:01:15;;;;;;;9.50;5.88;;;;;;;;;;5138556;27;20125;-81
2023/05/13 07:03:41;;;;;;;10.00;6.43;;;;;;;;;;5155485;27;20035;-82
2023/05/13 07:06:07;;;;;;;9.88;6.20;;;;;;;;;;5101169;27;20039;-82
2023/05/13 07:08:34;;;;;;;10.90;6.70;;;;;;;;;;5115295;27;20420;-82
2023/05/13 07:11:00;;;;;;;9.55;5.82;;;;;;;;;;5101553;27;20042;-83
2023/05/13 07:13:26;;;;;;;9.57;6.32;;;;;;;;;;5155401;27;20121;-82
2023/05/13 07:15:52;;;;;;;11.18;6.03;;;;;;;;;;5138606;27;20066;-81
2023/05/13 07:18:18;;;;;;;12.82;5.95;;;;;;;;;;5119981;27;20066;-84
2023/05/13 07:20:44;;;;;;;8.65;5.78;;;;;;;;;;5126803;27;20039;-82
2023/05/13 07:23:10;;;;;;;9.73;6.03;;;;;;;;;;5142849;27;20055;-82
2023/05/13 07:25:36;;;;;;;8.18;5.80;;;;;;;;;;5157043;27;20034;-80
2023/05/13 07:28:03;;;;;;;7.88;5.90;;;;;;;;;;5143557;27;20039;-82
2023/05/13 07:30:29;;;;;;;10.10;6.10;;;;;;;;;;5123670;27;20042;-81
2023/05/13 07:32:55;;;;;;;8.90;6.00;;;;;;;;;;5107272;27;20486;-82
2023/05/13 07:35:21;;;;;;;11.30;5.75;;;;;;;;;;5131911;27;20115;-81
2023/05/13 07:37:47;;;;;;;9.90;5.50;;;;;;;;;;5127516;27;20070;-82
2023/05/13 07:40:14;;;;;;;9.80;5.75;;;;;;;;;;5137103;27;20457;-83
2023/05/13 07:42:40;;;;;;;13.27;5.57;;;;;;;;;;5129703;27;20062;-82
2023/05/13 07:45:07;;;;;;;8.02;5.50;;;;;;;;;;5135474;27;20042;-82
2023/05/13 07:47:33;;;;;;;7.68;4.93;;;;;;;;;;5120421;27;20096;-83
2023/05/13 07:49:59;;;;;;;8.77;5.28;;;;;;;;;;5134761;27;20422;-83
2023/05/13 07:52:26;;;;;;;12.98;5.10;;;;;;;;;;5131999;27;20073;-77
2023/05/13 07:54:52;;;;;;;7.90;5.07;;;;;;;;;;5126688;27;20039;-79
2023/05/13 07:57:18;;;;;;;9.30;5.50;;;;;;;;;;5122018;27;20062;-77
2023/05/13 07:59:44;;;;;;;7.88;5.22;;;;;;;;;;5096851;28;20036;-81
2023/05/13 08:02:11;;;;;;;7.20;5.10;;;;;;;;;;5115396;27;20043;-82
2023/05/13 08:04:37;;;;;;;13.10;7.03;;;;;;;;;;5119195;27;20391;-80
2023/05/13 08:07:03;;;;;;;11.80;6.22;;;;;;;;;;5122145;27;20477;-83
2023/05/13 08:09:29;;;;;;;9.05;5.32;;;;;;;;;;5112983;28;20043;-81
2023/05/13 08:11:56;;;;;;;7.68;5.47;;;;;;;;;;5114225;27;20036;-82
2023/05/13 08:14:22;;;;;;;6.97;5.25;;;;;;;;;;5127861;27;20495;-84
2023/05/13 08:16:48;;;;;;;7.68;5.35;;;;;;;;;;5120519;27;20399;-82
2023/05/13 08:19:15;;;;;;;7.95;4.70;;;;;;;;;;5133852;27;20043;-80
2023/05/13 08:21:41;;;;;;;7.70;5.68;;;;;;;;;;5131330;27;20549;-80
2023/05/13 08:24:07;;;;;;;7.07;5.13;;;;;;;;;;5128960;27;20039;-82
2023/05/13 08:26:33;;;;;;;11.00;5.57;;;;;;;;;;5113619;27;20404;-84
2023/05/13 08:29:00;;;;;;;8.55;5.47;;;;;;;;;;5120903;27;20046;-84
2023/05/13 08:31:26;;;;;;;8.68;5.22;;;;;;;;;;5122104;27;20407;-82
2023/05/13 08:33:52;;;;;;;6.95;5.13;;;;;;;;;;5123958;27;20088;-82
2023/05/13 08:36:20;;;;;;;8.95;5.13;;;;;;;;;;5136076;27;20176;-80
2023/05/13 08:38:46;;;;;;;11.10;5.10;;;;;;;;;;5134198;27;20507;-79
2023/05/13 08:41:13;;;;;;;6.90;5.00;;;;;;;;;;5133720;27;20095;-79
2023/05/13 08:43:39;;;;;;;8.85;4.78;;;;;;;;;;5114705;27;20120;-80
2023/05/13 08:46:08;;;;;;;7.72;5.57;;;;;;;;;;5132283;27;20049;-81
2023/05/13 08:48:35;;;;;;;8.18;4.68;;;;;;;;;;5133388;27;20075;-81
2023/05/13 08:51:01;;;;;;;8.05;4.80;;;;;;;;;;5132413;27;20055;-81
2023/05/13 08:53:28;;;;;;;6.90;4.43;;;;;;;;;;5123199;27;20043;-82
2023/05/13 08:55:54;;;;;;;8.13;4.88;;;;;;;;;;5124840;27;20510;-83
2023/05/13 08:58:20;;;;;;;7.90;4.97;;;;;;;;;;5121027;27;20043;-81
2023/05/13 09:00:48;;;;;;;7.35;5.50;;;;;;;;;;5118726;27;20044;-80
2023/05/13 09:03:14;;;;;;;6.30;4.70;;;;;;;;;;5114492;28;20072;-79
2023/05/13 09:05:42;;;;;;;6.85;4.90;;;;;;;;;;5115686;27;20040;-83
2023/05/13 09:08:09;;;;;;;6.85;4.60;;;;;;;;;;5133220;27;20555;-84
2023/05/13 09:10:35;;;;;;;8.45;4.78;;;;;;;;;;5133801;27;20068;-82
2023/05/13 09:13:01;;;;;;;11.52;5.38;;;;;;;;;;5098871;28;20514;-81
2023/05/13 09:15:28;;;;;;;9.30;4.90;;;;;;;;;;5119076;27;20039;-78
2023/05/13 09:18:06;;;;;;;7.47;4.63;;;;;;;;;;5133573;27;20039;-80
2023/05/13 09:20:33;;;;;;;5.55;4.53;;;;;;;;;;5125495;27;20067;-81
2023/05/13 09:23:03;;;;;;;10.43;4.90;;;;;;;;;;5125821;27;20038;-79
2023/05/13 09:25:30;;;;;;;9.63;4.60;;;;;;;;;;5117698;27;20514;-82
2023/05/13 09:28:03;;;;;;;8.52;4.50;;;;;;;;;;5127503;27;20059;-81
2023/05/13 09:30:32;;;;;;;6.00;4.43;;;;;;;;;;5116636;27;20122;-80
2023/05/13 09:33:08;;;;;;;9.38;4.47;;;;;;;;;;5120877;27;20035;-82
2023/05/13 09:35:39;;;;;;;9.95;4.43;;;;;;;;;;5132066;27;20043;-83
2023/05/13 09:38:12;;;;;;;6.03;4.45;;;;;;;;;;5119020;27;20071;-82
2023/05/13 09:40:38;;;;;;;7.20;4.70;;;;;;;;;;5112616;28;20043;-81
2023/05/13 09:43:06;;;;;;;6.95;4.57;;;;;;;;;;5126745;27;21449;-82
2023/05/13 09:45:32;;;;;;;6.13;4.15;;;;;;;;;;5129185;27;20494;-80
2023/05/13 09:47:58;;;;;;;6.45;4.20;;;;;;;;;;5115374;28;20035;-80
2023/05/13 09:50:25;;;;;;;9.82;4.00;;;;;;;;;;5114931;28;20047;-81
2023/05/13 09:52:51;;;;;;;8.55;4.30;;;;;;;;;;5116006;28;20051;-81
2023/05/13 09:55:17;;;;;;;7.82;4.80;;;;;;;;;;5117548;28;20036;-79
2023/05/13 09:57:43;;;;;;;10.52;4.40;;;;;;;;;;5112152;28;20075;-83
2023/05/13 10:00:09;;;;;;;9.25;4.90;;;;;;;;;;5131493;28;20039;-85
2023/05/13 10:02:35;;;;;;;9.48;4.40;;;;;;;;;;5126213;28;20129;-83
2023/05/13 10:05:01;;;;;;;5.60;4.45;;;;;;;;;;5132311;28;20043;-82
2023/05/13 10:07:28;;;;;;;8.05;4.70;;;;;;;;;;5133468;28;20028;-83
2023/05/13 10:09:58;;;;;;;6.65;4.50;;;;;;;;;;5125733;28;20052;-82
2023/05/13 10:12:25;;;;;;;7.72;5.25;;;;;;;;;;5123774;28;20041;-82
2023/05/13 10:14:52;;;;;;;9.18;5.05;;;;;;;;;;5126337;28;20399;-87
2023/05/13 10:17:22;;;;;;;9.45;4.80;;;;;;;;;;5113474;28;20120;-81
2023/05/13 10:19:52;;;;;;;8.95;4.05;;;;;;;;;;5126225;28;20046;-85
2023/05/13 10:22:29;;;;;;;6.50;4.20;;;;;;;;;;5102332;28;20039;-84
2023/05/13 10:24:56;;;;;;;9.90;3.97;;;;;;;;;;5114571;28;20031;-82
2023/05/13 10:27:26;;;;;;;6.03;4.30;;;;;;;;;;5131856;28;20047;-84
2023/05/13 10:29:53;;;;;;;12.73;4.75;;;;;;;;;;5118719;28;20054;-84
2023/05/13 10:32:20;;;;;;;7.85;4.78;;;;;;;;;;5111719;28;20248;-80
2023/05/13 10:34:46;;;;;;;9.52;5.00;;;;;;;;;;5123914;28;20082;-85
2023/05/13 10:37:31;;;;;;;9.30;4.50;;;;;;;;;;5128364;28;20047;-81
2023/05/13 10:40:03;;;;;;;13.98;3.80;;;;;;;;;;5094061;28;20101;-80
2023/05/13 10:42:41;;;;;;;8.02;3.80;;;;;;;;;;5100756;28;20031;-83
2023/05/13 10:45:08;;;;;;;13.55;3.65;;;;;;;;;;5132493;28;20049;-80
2023/05/13 10:47:34;;;;;;;7.03;3.53;;;;;;;;;;5095368;28;20040;-81
2023/05/13 10:50:04;;;;;;;8.93;3.80;;;;;;;;;;5122742;28;20065;-82
2023/05/13 10:52:46;;;;;;;5.03;3.65;;;;;;;;;;5132233;27;20054;-81
2023/05/13 10:55:17;;;;;;;6.88;3.42;;;;;;;;;;5136381;27;20064;-82
2023/05/13 10:58:02;;;;;;;5.75;3.35;;;;;;;;;;5135986;27;20050;-80
2023/05/13 11:00:32;;;;;;;7.22;3.67;;;;;;;;;;5122738;27;20057;-80
2023/05/13 11:03:08;;;;;;;7.38;3.40;;;;;;;;;;5115506;27;20043;-85
2023/05/13 11:05:34;;;;;;;6.68;3.40;;;;;;;;;;5135333;27;20186;-83
2023/05/13 11:08:00;;;;;;;5.30;3.50;;;;;;;;;;5135293;27;20054;-76
2023/05/13 11:10:28;;;;;;;7.53;3.58;;;;;;;;;;5134871;27;20122;-83
2023/05/13 11:13:08;;;;;;;5.82;3.20;;;;;;;;;;5112749;28;20043;-82
2023/05/13 11:15:49;;;;;;;5.82;3.63;;;;;;;;;;5121402;27;20043;-82
2023/05/13 11:18:15;;;;;;;8.13;3.30;;;;;;;;;;5132806;27;20495;-74
2023/05/13 11:20:44;;;;;;;10.60;3.22;;;;;;;;;;5112601;28;20130;-75
2023/05/13 11:23:16;;;;;;;8.40;3.20;;;;;;;;;;5127992;27;20043;-75
2023/05/13 11:25:43;;;;;;;8.98;3.03;;;;;;;;;;5120401;27;20384;-75
2023/05/13 11:28:13;;;;;;;9.88;3.00;;;;;;;;;;5134908;27;20045;-76
2023/05/13 11:30:39;;;;;;;5.20;3.20;;;;;;;;;;5131032;27;20046;-81
2023/05/13 11:33:11;;;;;;;7.97;3.40;;;;;;;;;;5119746;27;20035;-83
2023/05/13 11:35:37;;;;;;;6.57;3.58;;;;;;;;;;5128249;27;20074;-74
2023/05/13 11:38:04;;;;;;;7.93;3.70;;;;;;;;;;5134363;27;20479;-75
2023/05/13 11:40:31;;;;;;;6.90;3.22;;;;;;;;;;5117071;27;20047;-74
2023/05/13 11:42:58;;;;;;;7.40;3.67;;;;;;;;;;5132634;27;20039;-74
2023/05/13 11:45:25;;;;;;;8.90;3.42;;;;;;;;;;5125034;27;20115;-81
2023/05/13 11:47:52;;;;;;;6.60;3.72;;;;;;;;;;5098279;27;20545;-78
2023/05/13 11:50:19;;;;;;;6.95;3.22;;;;;;;;;;5126527;27;20055;-80
2023/05/13 11:52:49;;;;;;;5.93;3.67;;;;;;;;;;5114186;27;20048;-74
2023/05/13 11:55:24;;;;;;;4.82;3.20;;;;;;;;;;5127978;27;20036;-79
2023/05/13 11:57:50;;;;;;;7.00;3.20;;;;;;;;;;5110426;27;20068;-79
2023/05/13 12:00:17;;;;;;;6.47;3.13;;;;;;;;;;5133568;27;20075;-79
2023/05/13 12:02:44;;;;;;;4.63;3.10;;;;;;;;;;5121853;27;20036;-74
2023/05/13 12:05:11;;;;;;;6.22;3.20;;;;;;;;;;5126568;27;20054;-76
2023/05/13 12:07:38;;;;;;;4.75;3.40;;;;;;;;;;5124987;27;20379;-75
2023/05/13 12:10:05;;;;;;;5.85;3.65;;;;;;;;;;5116665;27;20035;-78
2023/05/13 12:12:33;;;;;;;4.47;3.20;;;;;;;;;;5124492;27;20073;-83
2023/05/13 12:15:01;;;;;;;9.57;3.78;;;;;;;;;;5117817;27;20079;-79
2023/05/13 12:17:27;;;;;;;6.38;3.53;;;;;;;;;;5126486;27;20396;-79
2023/05/13 12:20:12;;;;;;;7.32;3.60;;;;;;;;;;5133881;27;20043;-88
2023/05/13 12:22:44;;;;;;;17.30;4.40;;;;;;;;;;5116067;27;20051;-86
2023/05/13 12:25:29;;;;;;;7.18;4.30;;;;;;;;;;5131279;27;20054;-87
2023/05/13 12:27:56;;;;;;;6.32;3.60;;;;;;;;;;5120999;27;20036;-85
2023/05/13 12:30:22;;;;;;;6.20;3.60;;;;;;;;;;5131223;27;20035;-87
2023/05/13 12:32:48;;;;;;;7.10;3.63;;;;;;;;;;5133617;27;20126;-83
2023/05/13 12:35:14;;;;;;;7.68;4.03;;;;;;;;;;5130405;27;20038;-79
2023/05/13 12:37:41;;;;;;;12.82;4.30;;;;;;;;;;5113232;28;20051;-85
2023/05/13 12:40:10;;;;;;;7.18;3.90;;;;;;;;;;5126679;27;20127;-80
2023/05/13 12:42:36;;;;;;;7.72;3.92;;;;;;;;;;5132215;27;20064;-74
2023/05/13 12:45:03;;;;;;;5.72;3.53;;;;;;;;;;5134110;27;20511;-75
2023/05/13 12:47:29;;;;;;;7.15;3.85;;;;;;;;;;5133272;27;20498;-74
2023/05/13 12:49:59;;;;;;;7.78;3.78;;;;;;;;;;5121800;27;20085;-74
2023/05/13 12:52:25;;;;;;;7.65;3.60;;;;;;;;;;5110270;28;20485;-74
2023/05/13 12:54:51;;;;;;;37.05;6.68;;;;;;;;;;5093612;28;20072;-80
2023/05/13 12:57:19;;;;;;;47.42;6.43;;;;;;;;;;5102927;28;20046;-77
2023/05/13 12:59:45;;;;;;;9.52;4.30;;;;;;;;;;5106067;28;20160;-80
2023/05/13 13:02:14;;;;;;;6.10;4.30;;;;;;;;;;5106466;28;20484;-79
2023/05/13 13:04:40;;;;;;;10.75;4.00;;;;;;;;;;5092123;28;20048;-79
2023/05/13 13:07:11;;;;;;;6.28;4.00;;;;;;;;;;5100398;28;20031;-79
2023/05/13 13:09:37;;;;;;;7.28;3.80;;;;;;;;;;5102622;28;20039;-75
2023/05/13 13:12:03;;;;;;;5.70;3.78;;;;;;;;;;5113000;28;20484;-74
2023/05/13 13:14:30;;;;;;;4.38;3.03;;;;;;;;;;5095716;28;20040;-75
2023/05/13 13:16:56;;;;;;;6.30;3.30;;;;;;;;;;5106696;28;20039;-75
2023/05/13 13:19:22;;;;;;;5.70;3.22;;;;;;;;;;5099836;28;20437;-74
2023/05/13 13:21:48;;;;;;;7.03;3.38;;;;;;;;;;5109809;28;20039;-77
2023/05/13 13:24:14;;;;;;;6.30;3.58;;;;;;;;;;5106567;28;20033;-75
2023/05/13 13:26:40;;;;;;;5.60;3.20;;;;;;;;;;5107506;28;20039;-75
2023/05/13 13:29:06;;;;;;;8.15;3.13;;;;;;;;;;5098447;28;20044;-74
2023/05/13 13:31:32;;;;;;;10.02;4.32;;;;;;;;;;5105647;28;20049;-74
2023/05/13 13:34:03;;;;;;;9.82;4.10;;;;;;;;;;5087261;28;20044;-75
2023/05/13 13:36:35;;;;;;;7.20;4.28;;;;;;;;;;5060299;28;20048;-75
2023/05/13 13:39:01;;;;;;;7.63;3.67;;;;;;;;;;5094963;28;20036;-75
2023/05/13 13:41:28;;;;;;;7.93;5.07;;;;;;;;;;5080396;28;20485;-76
2023/05/13 13:43:54;;;;;;;9.07;3.60;;;;;;;;;;5107266;28;20404;-75
2023/05/13 13:46:20;;;;;;;6.38;3.35;;;;;;;;;;5091173;28;20524;-75
2023/05/13 13:48:46;;;;;;;5.03;3.40;;;;;;;;;;5088026;28;20131;-79
2023/05/13 13:51:12;;;;;;;5.70;3.60;;;;;;;;;;5126709;28;20239;-80
2023/05/13 13:53:38;;;;;;;9.27;3.90;;;;;;;;;;5118491;28;20035;-82
2023/05/13 13:56:04;;;;;;;9.98;3.70;;;;;;;;;;5127313;28;20480;-78
2023/05/13 13:58:30;;;;;;;8.48;3.90;;;;;;;;;;5110355;28;20058;-81
2023/05/13 14:00:56;;;;;;;5.88;3.90;;;;;;;;;;5127118;28;20049;-81
2023/05/13 14:03:23;;;;;;;9.45;3.88;;;;;;;;;;5130718;28;20396;-82
2023/05/13 14:05:50;;;;;;;6.40;4.13;;;;;;;;;;5130800;28;20484;-82
2023/05/13 14:08:16;;;;;;;5.80;3.55;;;;;;;;;;5132039;27;20043;-80
2023/05/13 14:10:43;;;;;;;6.75;3.67;;;;;;;;;;5130925;28;20051;-81
2023/05/13 14:13:09;;;;;;;7.82;3.67;;;;;;;;;;5129856;28;20039;-81
2023/05/13 14:15:37;;;;;;;7.47;4.10;;;;;;;;;;5111761;28;20077;-81
2023/05/13 14:18:06;;;;;;;10.40;3.40;;;;;;;;;;5131208;28;20039;-80
2023/05/13 14:20:34;;;;;;;8.00;3.90;;;;;;;;;;5129384;28;20043;-82
2023/05/13 14:23:00;;;;;;;6.15;3.60;;;;;;;;;;5119162;28;20047;-80
2023/05/13 14:25:26;;;;;;;6.38;3.65;;;;;;;;;;5132500;28;20031;-82
2023/05/13 14:27:53;;;;;;;7.60;4.32;;;;;;;;;;5128287;27;20067;-80
2023/05/13 14:30:19;;;;;;;8.07;3.92;;;;;;;;;;5119186;27;20123;-75
2023/05/13 14:32:46;;;;;;;10.88;4.32;;;;;;;;;;5130485;27;20118;-79
2023/05/13 14:35:12;;;;;;;8.73;4.70;;;;;;;;;;5130992;27;20046;-80